createdAt,value
2023-03-11T00:03:14.226Z,2.71
2023-03-11T00:08:19.285Z,2.74
2023-03-11T00:10:48.088Z,2.59
2023-03-11T00:13:19.026Z,2.67
2023-03-11T00:15:48.761Z,2.63
2023-03-11T00:18:28.573Z,2.65
2023-03-11T00:20:57.388Z,2.58
2023-03-11T00:23:26.539Z,2.62
2023-03-11T00:28:25.701Z,2.52
2023-03-11T00:30:52.752Z,2.49
2023-03-11T00:33:19.310Z,2.54
2023-03-11T00:35:45.853Z,2.48
2023-03-11T00:38:15.469Z,2.51
2023-03-11T00:40:45.847Z,2.58
2023-03-11T00:43:16.194Z,2.52
2023-03-11T00:45:43.532Z,2.54
2023-03-11T00:48:12.058Z,2.47
2023-03-11T00:50:38.858Z,2.42
2023-03-11T00:53:08.474Z,2.43
2023-03-11T00:55:37.900Z,2.46
2023-03-11T00:58:06.807Z,2.48
2023-03-11T01:00:33.785Z,2.43
2023-03-11T01:03:00.748Z,2.44
2023-03-11T01:05:30.434Z,2.38
2023-03-11T01:07:57.060Z,2.40
2023-03-11T01:10:24.141Z,2.44
2023-03-11T01:12:59.205Z,2.40
2023-03-11T01:15:42.022Z,2.41
2023-03-11T01:18:20.898Z,2.37
2023-03-11T01:20:49.313Z,2.44
2023-03-11T01:23:50.176Z,2.42
2023-03-11T01:29:17.520Z,2.38
2023-03-11T01:31:52.056Z,2.32
2023-03-11T01:37:18.231Z,2.32
2023-03-11T01:39:48.725Z,2.33
2023-03-11T01:48:47.521Z,2.09
2023-03-11T01:51:26.312Z,2.05
2023-03-11T01:54:05.162Z,2.13
2023-03-11T01:56:43.274Z,2.01
2023-03-11T01:59:33.150Z,2.08
2023-03-11T02:05:06.636Z,1.95
2023-03-11T02:07:36.855Z,2.04
2023-03-11T02:12:56.998Z,1.91
2023-03-11T02:15:28.334Z,2.02
2023-03-11T02:18:07.300Z,1.87
2023-03-11T02:21:03.679Z,2.06
2023-03-11T02:23:52.467Z,1.97
2023-03-11T02:29:21.482Z,1.90
2023-03-11T02:31:54.125Z,1.92
2023-03-11T02:34:28.718Z,1.95
2023-03-11T02:37:02.112Z,1.99
2023-03-11T02:39:38.943Z,1.83
2023-03-11T02:42:29.093Z,1.90
2023-03-11T02:45:11.462Z,1.82
2023-03-11T02:47:49.120Z,1.79
2023-03-11T02:50:21.558Z,1.78
2023-03-11T02:53:04.354Z,1.87
2023-03-11T02:55:35.064Z,1.77
2023-03-11T02:58:12.353Z,1.76
2023-03-11T03:00:42.835Z,1.73
2023-03-11T03:03:26.564Z,1.74
2023-03-11T03:06:03.680Z,1.74
2023-03-11T03:08:39.224Z,1.68
2023-03-11T03:11:18.504Z,1.72
2023-03-11T03:16:19.284Z,1.58
2023-03-11T03:18:51.266Z,1.74
2023-03-11T03:21:21.728Z,1.69
2023-03-11T03:23:50.465Z,1.77
2023-03-11T03:26:20.982Z,1.77
2023-03-11T03:28:56.110Z,1.65
2023-03-11T03:31:26.280Z,1.58
2023-03-11T03:33:57.019Z,1.57
2023-03-11T03:36:30.564Z,1.52
2023-03-11T03:39:02.736Z,1.59
2023-03-11T03:41:33.406Z,1.54
2023-03-11T03:44:07.191Z,1.53
2023-03-11T03:49:11.361Z,1.57
2023-03-11T03:51:53.922Z,1.63
2023-03-11T03:54:30.312Z,1.43
2023-03-11T03:57:05.281Z,1.59
2023-03-11T03:59:37.828Z,1.54
2023-03-11T04:02:08.667Z,1.57
2023-03-11T04:04:49.721Z,1.51
2023-03-11T04:07:29.943Z,1.48
2023-03-11T04:10:05.607Z,1.53
2023-03-11T04:12:37.058Z,1.47
2023-03-11T04:15:10.564Z,1.50
2023-03-11T04:17:41.848Z,1.49
2023-03-11T04:20:18.838Z,1.45
2023-03-11T04:25:19.210Z,1.46
2023-03-11T04:27:53.025Z,1.40
2023-03-11T04:30:20.635Z,1.44
2023-03-11T04:32:48.275Z,1.54
2023-03-11T04:35:23.847Z,1.51
2023-03-11T04:37:52.345Z,1.36
2023-03-11T04:40:30.814Z,1.53
2023-03-11T04:43:01.135Z,1.38
2023-03-11T04:45:31.954Z,1.26
2023-03-11T04:48:01.983Z,1.27
2023-03-11T04:50:30.151Z,1.40
2023-03-11T04:53:06.236Z,1.30
2023-03-11T04:55:38.154Z,1.34
2023-03-11T04:58:11.083Z,1.18
2023-03-11T05:00:38.010Z,1.23
2023-03-11T05:03:13.952Z,1.22
2023-03-11T05:05:46.689Z,1.17
2023-03-11T05:08:19.469Z,1.24
2023-03-11T05:10:52.468Z,1.08
2023-03-11T05:13:24.454Z,1.17
2023-03-11T05:18:24.925Z,1.10
2023-03-11T05:20:53.737Z,1.05
2023-03-11T05:23:22.448Z,1.09
2023-03-11T05:25:55.546Z,1.07
2023-03-11T05:28:26.094Z,1.10
2023-03-11T05:33:39.118Z,1.19
2023-03-11T05:36:10.029Z,1.09
2023-03-11T05:41:12.812Z,1.06
2023-03-11T05:43:41.315Z,1.12
2023-03-11T05:46:25.725Z,1.05
2023-03-11T05:49:01.396Z,0.97
2023-03-11T05:51:38.329Z,0.97
2023-03-11T05:54:11.382Z,0.96
2023-03-11T05:59:14.332Z,0.92
2023-03-11T06:01:44.101Z,0.93
2023-03-11T06:04:15.639Z,0.98
2023-03-11T06:06:42.994Z,0.99
2023-03-11T06:09:21.558Z,1.01
2023-03-11T06:11:56.764Z,1.03
2023-03-11T06:14:24.501Z,0.97
2023-03-11T06:17:00.839Z,1.01
2023-03-11T06:22:29.791Z,1.14
2023-03-11T06:25:01.213Z,1.31
2023-03-11T06:27:29.615Z,1.23
2023-03-11T06:30:02.073Z,1.20
2023-03-11T06:32:35.249Z,1.41
2023-03-11T06:35:08.502Z,1.38
2023-03-11T06:37:40.008Z,1.29
2023-03-11T06:40:13.630Z,1.32
2023-03-11T06:42:45.829Z,1.22
2023-03-11T06:45:13.078Z,1.33
2023-03-11T06:47:46.350Z,1.46
2023-03-11T06:50:20.337Z,1.47
2023-03-11T06:52:47.542Z,1.25
2023-03-11T06:55:14.478Z,1.23
2023-03-11T06:57:48.160Z,1.15
2023-03-11T07:00:17.404Z,1.22
2023-03-11T07:02:49.109Z,1.36
2023-03-11T07:07:57.074Z,1.40
2023-03-11T07:10:27.469Z,1.39
2023-03-11T07:12:55.644Z,1.32
2023-03-11T07:15:24.881Z,1.36
2023-03-11T07:17:55.732Z,1.48
2023-03-11T07:20:25.387Z,1.58
2023-03-11T07:23:00.897Z,1.42
2023-03-11T07:27:54.493Z,1.47
2023-03-11T07:30:21.292Z,1.47
2023-03-11T07:32:47.926Z,1.54
2023-03-11T07:35:15.160Z,1.46
2023-03-11T07:37:41.858Z,1.44
2023-03-11T07:42:37.180Z,1.72
2023-03-11T07:45:04.002Z,1.56
2023-03-11T07:47:30.781Z,1.61
2023-03-11T07:49:57.520Z,1.78
2023-03-11T07:52:24.335Z,2.04
2023-03-11T07:57:17.791Z,3.09
2023-03-11T08:02:12.039Z,2.88
2023-03-11T08:04:38.893Z,2.65
2023-03-11T08:07:05.714Z,2.46
2023-03-11T08:09:32.693Z,2.49
2023-03-11T08:11:59.523Z,2.45
2023-03-11T08:14:26.480Z,2.62
2023-03-11T08:16:53.840Z,2.34
2023-03-11T08:19:20.672Z,2.15
2023-03-11T08:21:47.393Z,2.39
2023-03-11T08:24:14.838Z,3.13
2023-03-11T08:26:42.403Z,3.77
2023-03-11T08:29:09.464Z,4.08
2023-03-11T08:31:36.611Z,3.75
2023-03-11T08:34:06.220Z,4.01
2023-03-11T08:36:33.718Z,3.65
2023-03-11T08:39:01.235Z,3.64
2023-03-11T08:41:28.499Z,3.78
2023-03-11T08:43:55.394Z,4.01
2023-03-11T08:46:27.000Z,4.54
2023-03-11T08:48:55.638Z,4.73
2023-03-11T08:51:23.804Z,4.78
2023-03-11T08:53:51.739Z,4.88
2023-03-11T08:56:19.155Z,4.30
2023-03-11T08:58:46.524Z,4.07
2023-03-11T09:01:13.660Z,4.41
2023-03-11T09:03:41.057Z,5.04
2023-03-11T09:06:11.714Z,4.09
2023-03-11T09:08:38.488Z,3.80
2023-03-11T09:11:05.841Z,3.68
2023-03-11T09:13:33.068Z,3.41
2023-03-11T09:15:59.876Z,3.48
2023-03-11T09:18:27.441Z,3.43
2023-03-11T09:20:58.319Z,3.31
2023-03-11T09:23:25.327Z,3.13
2023-03-11T09:25:52.693Z,3.01
2023-03-11T09:28:19.183Z,3.19
2023-03-11T09:33:12.287Z,3.20
2023-03-11T09:35:39.717Z,3.02
2023-03-11T09:38:06.645Z,2.95
2023-03-11T09:40:44.402Z,2.99
2023-03-11T09:43:25.008Z,3.08
2023-03-11T09:46:00.548Z,3.00
2023-03-11T09:51:09.592Z,3.77
2023-03-11T09:56:18.970Z,5.23
2023-03-11T10:01:24.223Z,4.65
2023-03-11T10:03:54.535Z,4.36
2023-03-11T10:06:26.729Z,4.43
2023-03-11T10:09:03.233Z,3.96
2023-03-11T10:14:20.688Z,3.57
2023-03-11T10:16:55.656Z,3.53
2023-03-11T10:22:32.094Z,3.79
2023-03-11T10:25:07.884Z,4.08
2023-03-11T10:30:36.316Z,4.09
2023-03-11T10:33:39.400Z,4.01
2023-03-11T10:36:17.448Z,4.05
2023-03-11T10:39:00.966Z,4.00
2023-03-11T10:41:41.414Z,3.86
2023-03-11T10:44:24.866Z,3.81
2023-03-11T10:46:54.818Z,3.61
2023-03-11T10:49:24.076Z,3.66
2023-03-11T10:52:10.865Z,3.63
2023-03-11T10:57:36.654Z,3.35
2023-03-11T11:00:17.411Z,3.00
2023-03-11T11:02:54.036Z,3.12
2023-03-11T11:05:20.555Z,3.22
2023-03-11T11:10:21.467Z,3.11
2023-03-11T11:13:06.778Z,3.14
2023-03-11T11:15:40.748Z,2.99
2023-03-11T11:18:33.529Z,3.38
2023-03-11T11:21:07.587Z,3.42
2023-03-11T11:23:39.763Z,3.43
2023-03-11T11:26:24.503Z,3.49
2023-03-11T11:29:09.088Z,4.00
2023-03-11T11:31:40.294Z,4.30
2023-03-11T11:34:31.965Z,4.14
2023-03-11T11:37:01.189Z,3.65
2023-03-11T11:39:32.376Z,3.98
2023-03-11T11:42:00.794Z,3.66
2023-03-11T11:44:34.092Z,3.63
2023-03-11T11:47:13.650Z,3.73
2023-03-11T11:52:25.153Z,3.63
2023-03-11T11:55:02.800Z,3.60
2023-03-11T11:57:32.634Z,3.78
2023-03-11T12:00:05.424Z,3.79
2023-03-11T12:05:31.022Z,3.80
2023-03-11T12:08:08.938Z,4.17
2023-03-11T12:10:41.402Z,4.13
2023-03-11T12:13:30.652Z,4.03
2023-03-11T12:18:58.396Z,3.98
2023-03-11T12:24:34.406Z,4.20
2023-03-11T12:27:09.065Z,4.26
2023-03-11T12:29:46.761Z,3.99
2023-03-11T12:32:36.771Z,4.11
2023-03-11T12:35:18.400Z,4.73
2023-03-11T12:37:45.613Z,4.76
2023-03-11T12:43:30.124Z,4.61
2023-03-11T12:46:01.134Z,4.85
2023-03-11T12:48:27.810Z,4.64
2023-03-11T12:50:55.062Z,4.44
2023-03-11T12:53:41.692Z,4.36
2023-03-11T12:56:26.407Z,4.39
2023-03-11T12:58:59.402Z,4.83
2023-03-11T13:04:38.898Z,4.60
2023-03-11T13:07:26.163Z,4.36
2023-03-11T13:10:12.842Z,4.41
2023-03-11T13:15:20.434Z,4.80
2023-03-11T13:17:58.826Z,4.97
2023-03-11T13:20:44.560Z,5.10
2023-03-11T13:23:13.932Z,4.96
2023-03-11T13:28:31.064Z,4.56
2023-03-11T13:31:38.436Z,4.28
2023-03-11T13:34:05.252Z,4.16
2023-03-11T13:36:56.550Z,3.94
2023-03-11T13:42:20.984Z,3.99
2023-03-11T13:47:17.951Z,3.86
2023-03-11T13:49:53.793Z,3.86
2023-03-11T13:52:27.660Z,3.85
2023-03-11T13:55:01.427Z,3.87
2023-03-11T13:57:35.506Z,4.05
2023-03-11T14:00:24.363Z,4.03
2023-03-11T14:02:55.976Z,3.72
2023-03-11T14:05:27.441Z,3.61
2023-03-11T14:07:54.861Z,3.62
2023-03-11T14:10:23.877Z,3.49
2023-03-11T14:15:27.506Z,3.61
2023-03-11T14:18:29.305Z,3.73
2023-03-11T14:21:00.721Z,3.93
2023-03-11T14:23:33.616Z,4.08
2023-03-11T14:26:06.343Z,3.89
2023-03-11T14:28:41.204Z,4.24
2023-03-11T14:31:08.309Z,4.19
2023-03-11T14:33:35.260Z,4.06
2023-03-11T14:36:06.950Z,3.98
2023-03-11T14:38:33.962Z,3.99
2023-03-11T14:41:05.420Z,3.85
2023-03-11T14:43:38.007Z,3.72
2023-03-11T14:46:11.157Z,3.63
2023-03-11T14:48:44.197Z,3.58
2023-03-11T14:51:29.939Z,3.81
2023-03-11T14:54:08.505Z,3.99
2023-03-11T14:56:40.423Z,3.79
2023-03-11T14:59:15.216Z,3.53
2023-03-11T15:01:43.947Z,3.62
2023-03-11T15:04:34.380Z,3.69
2023-03-11T15:07:04.351Z,3.46
2023-03-11T15:12:01.017Z,3.56
2023-03-11T15:14:36.489Z,3.41
2023-03-11T15:17:36.173Z,3.33
2023-03-11T15:20:24.239Z,3.35
2023-03-11T15:23:04.472Z,3.25
2023-03-11T15:25:34.641Z,3.42
2023-03-11T15:28:24.480Z,3.50
2023-03-11T15:31:12.911Z,3.49
2023-03-11T15:33:41.716Z,3.57
2023-03-11T15:36:33.524Z,3.56
2023-03-11T15:39:17.937Z,3.45
2023-03-11T15:41:47.985Z,3.50
2023-03-11T15:44:30.893Z,3.49
2023-03-11T15:47:01.028Z,3.45
2023-03-11T15:49:29.436Z,3.50
2023-03-11T15:52:02.655Z,3.48
2023-03-11T15:54:29.822Z,3.57
2023-03-11T15:57:00.346Z,3.69
2023-03-11T15:59:28.783Z,3.63
2023-03-11T16:01:56.057Z,3.54
2023-03-11T16:04:25.464Z,3.60
2023-03-11T16:07:06.886Z,3.51
2023-03-11T16:09:34.849Z,3.49
2023-03-11T16:12:02.455Z,3.50
2023-03-11T16:14:29.343Z,3.43
2023-03-11T16:16:56.229Z,3.59
2023-03-11T16:19:22.844Z,3.57
2023-03-11T16:21:50.636Z,3.40
2023-03-11T16:24:22.562Z,3.33
2023-03-11T16:26:52.029Z,3.36
2023-03-11T16:29:19.968Z,3.37
2023-03-11T16:31:51.082Z,3.42
2023-03-11T16:34:17.778Z,3.24
2023-03-11T16:36:45.078Z,3.16
2023-03-11T16:39:25.081Z,3.12
2023-03-11T16:44:20.896Z,3.22
2023-03-11T16:46:50.919Z,3.26
2023-03-11T16:49:18.079Z,3.25
2023-03-11T16:51:48.531Z,3.27
2023-03-11T16:54:15.825Z,3.32
2023-03-11T16:56:55.028Z,3.30
2023-03-11T16:59:28.098Z,3.32
2023-03-11T17:04:22.850Z,3.23
2023-03-11T17:06:50.103Z,3.21
2023-03-11T17:09:17.231Z,3.09
2023-03-11T17:11:56.744Z,3.13
2023-03-11T17:14:24.437Z,3.10
2023-03-11T17:16:53.594Z,3.00
2023-03-11T17:19:20.240Z,3.03
2023-03-11T17:21:49.858Z,3.11
2023-03-11T17:24:17.457Z,3.14
2023-03-11T17:26:53.178Z,3.13
2023-03-11T17:29:22.269Z,3.13
2023-03-11T17:31:54.990Z,3.04
2023-03-11T17:34:24.807Z,3.11
2023-03-11T17:36:51.907Z,3.13
2023-03-11T17:39:19.436Z,3.18
2023-03-11T17:41:46.580Z,3.10
2023-03-11T17:44:21.051Z,3.11
2023-03-11T17:46:48.745Z,3.07
2023-03-11T17:49:34.555Z,3.22
2023-03-11T17:52:06.254Z,3.21
2023-03-11T17:54:49.553Z,3.07
2023-03-11T17:57:29.106Z,3.03
2023-03-11T18:00:21.310Z,3.04
2023-03-11T18:02:50.289Z,3.02
2023-03-11T18:05:19.706Z,2.94
2023-03-11T18:10:31.750Z,3.00
2023-03-11T18:13:06.426Z,3.01
2023-03-11T18:15:39.088Z,2.98
2023-03-11T18:18:07.993Z,2.96
2023-03-11T18:20:40.658Z,3.00
2023-03-11T18:23:07.764Z,2.97
2023-03-11T18:25:41.581Z,2.93
2023-03-11T18:28:08.760Z,2.91
2023-03-11T18:30:42.219Z,2.87
2023-03-11T18:33:09.540Z,2.87
2023-03-11T18:35:37.443Z,2.88
2023-03-11T18:38:04.517Z,2.84
2023-03-11T18:40:31.357Z,2.78
2023-03-11T18:42:58.416Z,2.76
2023-03-11T18:45:26.160Z,2.84
2023-03-11T18:50:22.852Z,2.88
2023-03-11T18:55:27.246Z,2.84
2023-03-11T19:00:23.822Z,2.91
2023-03-11T19:02:52.273Z,2.91
2023-03-11T19:05:20.847Z,2.90
2023-03-11T19:07:54.268Z,2.88
2023-03-11T19:10:24.026Z,2.88
2023-03-11T19:12:55.038Z,2.97
2023-03-11T19:15:23.342Z,2.98
2023-03-11T19:18:05.895Z,3.01
2023-03-11T19:20:37.970Z,2.98
2023-03-11T19:23:10.421Z,2.88
2023-03-11T19:25:42.611Z,2.78
2023-03-11T19:28:17.829Z,2.76
2023-03-11T19:30:45.086Z,2.66
2023-03-11T19:33:15.252Z,2.53
2023-03-11T19:35:43.609Z,2.44
2023-03-11T19:38:17.669Z,2.46
2023-03-11T19:40:59.193Z,2.50
2023-03-11T19:43:39.416Z,2.40
2023-03-11T19:46:17.309Z,2.40
2023-03-11T19:49:18.475Z,2.39
2023-03-11T19:54:45.142Z,2.48
2023-03-11T19:57:24.197Z,2.47
2023-03-11T20:00:12.075Z,2.44
2023-03-11T20:02:47.537Z,2.36
2023-03-11T20:05:37.233Z,2.43
2023-03-11T20:08:17.490Z,2.39
2023-03-11T20:10:51.009Z,2.45
2023-03-11T20:13:36.306Z,2.34
2023-03-11T20:16:18.753Z,2.25
2023-03-11T20:19:01.508Z,2.23
2023-03-11T20:21:41.360Z,2.19
2023-03-11T20:24:13.625Z,2.12
2023-03-11T20:26:51.119Z,2.10
2023-03-11T20:29:32.249Z,2.00
2023-03-11T20:32:08.011Z,1.92
2023-03-11T20:34:46.215Z,1.94
2023-03-11T20:37:23.319Z,1.93
2023-03-11T20:39:51.660Z,1.98
2023-03-11T20:42:24.675Z,1.91
2023-03-11T20:47:36.735Z,1.93
2023-03-11T20:50:05.648Z,1.97
2023-03-11T20:52:42.294Z,1.92
2023-03-11T20:55:10.717Z,1.90
2023-03-11T20:57:41.689Z,1.85
2023-03-11T21:00:23.562Z,1.87
2023-03-11T21:02:53.103Z,1.89
2023-03-11T21:05:22.842Z,1.96
2023-03-11T21:07:50.432Z,2.11
2023-03-11T21:10:18.057Z,2.03
2023-03-11T21:12:47.908Z,1.95
2023-03-11T21:15:15.381Z,1.71
2023-03-11T21:17:45.937Z,1.59
2023-03-11T21:22:46.470Z,1.43
2023-03-11T21:25:13.700Z,1.24
2023-03-11T21:27:40.918Z,1.12
2023-03-11T21:30:15.499Z,1.02
2023-03-11T21:32:45.718Z,0.94
2023-03-11T21:35:15.563Z,0.89
2023-03-11T21:37:46.685Z,0.96
2023-03-11T21:40:14.321Z,0.99
2023-03-11T21:45:10.741Z,1.18
2023-03-11T21:47:40.272Z,1.24
2023-03-11T21:50:07.843Z,1.25
2023-03-11T21:52:34.944Z,1.28
2023-03-11T21:57:29.570Z,1.23
2023-03-11T22:02:23.632Z,1.22
2023-03-11T22:04:51.067Z,1.10
2023-03-11T22:07:18.485Z,1.05
2023-03-11T22:09:45.427Z,0.91
2023-03-11T22:12:12.668Z,0.84
2023-03-11T22:19:33.513Z,0.71
2023-03-11T22:22:00.652Z,0.65
2023-03-11T22:24:30.478Z,0.45
2023-03-11T22:27:00.936Z,0.40
2023-03-11T22:29:27.764Z,0.28
2023-03-11T22:31:57.811Z,0.29
2023-03-11T22:34:24.677Z,0.20
2023-03-11T22:36:52.522Z,0.15
2023-03-11T22:39:22.812Z,0.20
2023-03-11T22:41:52.911Z,0.30
2023-03-11T22:44:21.121Z,0.41
2023-03-11T22:46:47.946Z,0.45
2023-03-11T22:49:15.008Z,0.50
2023-03-11T22:51:41.794Z,0.43
2023-03-11T22:54:11.899Z,0.19
2023-03-11T22:56:39.516Z,0.08
2023-03-11T22:59:06.475Z,0.05
2023-03-11T23:01:33.358Z,0.02
2023-03-11T23:06:30.324Z,-0.04
2023-03-11T23:08:57.260Z,-0.10
2023-03-11T23:11:23.920Z,-0.17
2023-03-11T23:13:51.240Z,0.00
2023-03-11T23:16:22.921Z,0.12
2023-03-11T23:18:51.969Z,0.03
2023-03-11T23:21:28.095Z,0.04
2023-03-11T23:26:22.867Z,0.08
2023-03-11T23:28:51.310Z,0.06
2023-03-11T23:31:19.982Z,0.12
2023-03-11T23:33:46.932Z,0.14
2023-03-11T23:36:17.717Z,0.15
2023-03-11T23:38:45.096Z,0.10
2023-03-11T23:41:20.080Z,0.16
2023-03-11T23:43:49.813Z,0.15
2023-03-11T23:46:17.598Z,0.17
2023-03-11T23:48:46.977Z,0.07
2023-03-11T23:51:16.867Z,-0.03
2023-03-11T23:53:43.605Z,-0.01
2023-03-11T23:56:17.223Z,0.04
2023-03-11T23:58:47.827Z,-0.08
